sensor_id;sensor_type;location;lat;lon;timestamp;P1;durP1;ratioP1;P2;durP2;ratioP2
16824;SDS011;8529;48.108;-1.706;2023-04-15T00:01:23;2.92;;;1.10;;
16824;SDS011;8529;48.108;-1.706;2023-04-15T00:03:55;2.33;;;0.80;;
16824;SDS011;8529;48.108;-1.706;2023-04-15T00:06:25;2.70;;;0.90;;
16824;SDS011;8529;48.108;-1.706;2023-04-15T00:08:51;3.00;;;1.13;;
16824;SDS011;8529;48.108;-1.706;2023-04-15T00:11:21;5.85;;;1.08;;
16824;SDS011;8529;48.108;-1.706;2023-04-15T00:13:53;4.65;;;0.98;;
16824;SDS011;8529;48.108;-1.706;2023-04-15T00:16:20;5.40;;;0.77;;
16824;SDS011;8529;48.108;-1.706;2023-04-15T00:18:52;4.25;;;1.05;;
16824;SDS011;8529;48.108;-1.706;2023-04-15T00:21:19;1.55;;;1.13;;
16824;SDS011;8529;48.108;-1.706;2023-04-15T00:23:46;2.67;;;0.70;;
16824;SDS011;8529;48.108;-1.706;2023-04-15T00:26:16;0.98;;;0.68;;
16824;SDS011;8529;48.108;-1.706;2023-04-15T00:28:45;4.07;;;0.75;;
16824;SDS011;8529;48.108;-1.706;2023-04-15T00:31:17;3.40;;;0.80;;
16824;SDS011;8529;48.108;-1.706;2023-04-15T00:33:45;4.90;;;1.13;;
16824;SDS011;8529;48.108;-1.706;2023-04-15T00:36:13;4.80;;;1.05;;
16824;SDS011;8529;48.108;-1.706;2023-04-15T00:38:53;3.13;;;0.90;;
16824;SDS011;8529;48.108;-1.706;2023-04-15T00:41:21;5.10;;;0.82;;
16824;SDS011;8529;48.108;-1.706;2023-04-15T00:43:53;4.20;;;0.90;;
16824;SDS011;8529;48.108;-1.706;2023-04-15T00:46:25;3.35;;;1.30;;
16824;SDS011;8529;48.108;-1.706;2023-04-15T00:48:59;2.53;;;0.90;;
16824;SDS011;8529;48.108;-1.706;2023-04-15T00:51:35;5.57;;;0.82;;
16824;SDS011;8529;48.108;-1.706;2023-04-15T00:54:04;1.48;;;0.80;;
16824;SDS011;8529;48.108;-1.706;2023-04-15T00:56:33;2.72;;;1.00;;
16824;SDS011;8529;48.108;-1.706;2023-04-15T00:59:02;3.13;;;0.98;;
16824;SDS011;8529;48.108;-1.706;2023-04-15T01:01:32;5.28;;;1.27;;
16824;SDS011;8529;48.108;-1.706;2023-04-15T01:04:00;1.33;;;0.68;;
16824;SDS011;8529;48.108;-1.706;2023-04-15T01:06:28;1.65;;;0.63;;
16824;SDS011;8529;48.108;-1.706;2023-04-15T01:08:56;4.07;;;0.95;;
16824;SDS011;8529;48.108;-1.706;2023-04-15T01:11:24;3.80;;;1.25;;
16824;SDS011;8529;48.108;-1.706;2023-04-15T01:13:52;3.35;;;1.17;;
16824;SDS011;8529;48.108;-1.706;2023-04-15T01:16:21;2.88;;;1.00;;
16824;SDS011;8529;48.108;-1.706;2023-04-15T01:18:49;3.10;;;0.95;;
16824;SDS011;8529;48.108;-1.706;2023-04-15T01:21:16;2.97;;;1.13;;
16824;SDS011;8529;48.108;-1.706;2023-04-15T01:23:44;2.42;;;1.10;;
16824;SDS011;8529;48.108;-1.706;2023-04-15T01:26:14;2.45;;;1.10;;
16824;SDS011;8529;48.108;-1.706;2023-04-15T01:28:41;2.35;;;0.77;;
16824;SDS011;8529;48.108;-1.706;2023-04-15T01:31:09;2.05;;;0.77;;
16824;SDS011;8529;48.108;-1.706;2023-04-15T01:33:37;3.78;;;0.80;;
16824;SDS011;8529;48.108;-1.706;2023-04-15T01:36:05;2.97;;;0.88;;
16824;SDS011;8529;48.108;-1.706;2023-04-15T01:38:34;3.53;;;0.88;;
16824;SDS011;8529;48.108;-1.706;2023-04-15T01:41:01;2.53;;;1.00;;
16824;SDS011;8529;48.108;-1.706;2023-04-15T01:43:32;5.25;;;1.23;;
16824;SDS011;8529;48.108;-1.706;2023-04-15T01:46:00;4.80;;;0.90;;
16824;SDS011;8529;48.108;-1.706;2023-04-15T01:48:27;2.85;;;0.88;;
16824;SDS011;8529;48.108;-1.706;2023-04-15T01:50:54;3.03;;;0.95;;
16824;SDS011;8529;48.108;-1.706;2023-04-15T01:53:22;4.63;;;1.10;;
16824;SDS011;8529;48.108;-1.706;2023-04-15T01:55:49;5.22;;;1.00;;
16824;SDS011;8529;48.108;-1.706;2023-04-15T01:58:17;2.97;;;0.73;;
16824;SDS011;8529;48.108;-1.706;2023-04-15T02:00:46;3.47;;;0.82;;
16824;SDS011;8529;48.108;-1.706;2023-04-15T02:03:12;2.45;;;1.00;;
16824;SDS011;8529;48.108;-1.706;2023-04-15T02:05:39;3.55;;;1.15;;
16824;SDS011;8529;48.108;-1.706;2023-04-15T02:08:06;5.80;;;0.93;;
16824;SDS011;8529;48.108;-1.706;2023-04-15T02:10:34;3.85;;;1.60;;
16824;SDS011;8529;48.108;-1.706;2023-04-15T02:13:01;3.60;;;1.55;;
16824;SDS011;8529;48.108;-1.706;2023-04-15T02:15:28;4.00;;;0.98;;
16824;SDS011;8529;48.108;-1.706;2023-04-15T02:17:56;3.53;;;1.05;;
16824;SDS011;8529;48.108;-1.706;2023-04-15T02:20:24;5.25;;;0.90;;
16824;SDS011;8529;48.108;-1.706;2023-04-15T02:22:51;3.50;;;1.10;;
16824;SDS011;8529;48.108;-1.706;2023-04-15T02:25:18;3.08;;;1.27;;
16824;SDS011;8529;48.108;-1.706;2023-04-15T02:27:45;2.33;;;0.75;;
16824;SDS011;8529;48.108;-1.706;2023-04-15T02:30:12;5.65;;;1.20;;
16824;SDS011;8529;48.108;-1.706;2023-04-15T02:32:39;4.28;;;1.13;;
16824;SDS011;8529;48.108;-1.706;2023-04-15T02:35:10;5.53;;;1.20;;
16824;SDS011;8529;48.108;-1.706;2023-04-15T02:37:37;6.38;;;0.90;;
16824;SDS011;8529;48.108;-1.706;2023-04-15T02:40:07;4.00;;;1.17;;
16824;SDS011;8529;48.108;-1.706;2023-04-15T02:42:36;3.25;;;1.13;;
16824;SDS011;8529;48.108;-1.706;2023-04-15T02:45:04;2.60;;;1.00;;
16824;SDS011;8529;48.108;-1.706;2023-04-15T02:47:32;2.22;;;1.10;;
16824;SDS011;8529;48.108;-1.706;2023-04-15T02:50:00;4.30;;;1.00;;
16824;SDS011;8529;48.108;-1.706;2023-04-15T02:52:29;2.80;;;1.10;;
16824;SDS011;8529;48.108;-1.706;2023-04-15T02:54:56;4.60;;;0.85;;
16824;SDS011;8529;48.108;-1.706;2023-04-15T02:57:25;3.05;;;0.98;;
16824;SDS011;8529;48.108;-1.706;2023-04-15T02:59:52;5.65;;;1.20;;
16824;SDS011;8529;48.108;-1.706;2023-04-15T03:02:19;3.03;;;1.20;;
16824;SDS011;8529;48.108;-1.706;2023-04-15T03:04:46;12.07;;;1.45;;
16824;SDS011;8529;48.108;-1.706;2023-04-15T03:07:13;7.60;;;1.10;;
16824;SDS011;8529;48.108;-1.706;2023-04-15T03:09:42;2.80;;;0.90;;
16824;SDS011;8529;48.108;-1.706;2023-04-15T03:12:09;4.55;;;1.52;;
16824;SDS011;8529;48.108;-1.706;2023-04-15T03:14:36;3.00;;;0.90;;
16824;SDS011;8529;48.108;-1.706;2023-04-15T03:17:02;5.35;;;1.25;;
16824;SDS011;8529;48.108;-1.706;2023-04-15T03:19:29;3.28;;;1.20;;
16824;SDS011;8529;48.108;-1.706;2023-04-15T03:21:56;6.55;;;1.20;;
16824;SDS011;8529;48.108;-1.706;2023-04-15T03:24:23;4.05;;;1.20;;
16824;SDS011;8529;48.108;-1.706;2023-04-15T03:26:54;4.57;;;1.25;;
16824;SDS011;8529;48.108;-1.706;2023-04-15T03:29:21;6.32;;;1.13;;
16824;SDS011;8529;48.108;-1.706;2023-04-15T03:31:48;3.67;;;1.27;;
16824;SDS011;8529;48.108;-1.706;2023-04-15T03:34:16;3.47;;;1.00;;
16824;SDS011;8529;48.108;-1.706;2023-04-15T03:36:43;5.53;;;1.10;;
16824;SDS011;8529;48.108;-1.706;2023-04-15T03:39:09;6.75;;;1.40;;
16824;SDS011;8529;48.108;-1.706;2023-04-15T03:41:37;4.32;;;1.30;;
16824;SDS011;8529;48.108;-1.706;2023-04-15T03:44:05;3.78;;;1.08;;
16824;SDS011;8529;48.108;-1.706;2023-04-15T03:46:32;6.70;;;1.17;;
16824;SDS011;8529;48.108;-1.706;2023-04-15T03:48:59;6.45;;;1.40;;
16824;SDS011;8529;48.108;-1.706;2023-04-15T03:51:25;5.32;;;1.33;;
16824;SDS011;8529;48.108;-1.706;2023-04-15T03:53:52;4.95;;;1.40;;
16824;SDS011;8529;48.108;-1.706;2023-04-15T03:56:20;4.53;;;1.13;;
16824;SDS011;8529;48.108;-1.706;2023-04-15T03:58:46;3.78;;;1.20;;
16824;SDS011;8529;48.108;-1.706;2023-04-15T04:01:15;6.38;;;1.92;;
16824;SDS011;8529;48.108;-1.706;2023-04-15T04:03:42;5.40;;;1.33;;
16824;SDS011;8529;48.108;-1.706;2023-04-15T04:06:09;4.78;;;1.48;;
16824;SDS011;8529;48.108;-1.706;2023-04-15T04:08:36;2.30;;;1.20;;
16824;SDS011;8529;48.108;-1.706;2023-04-15T04:11:03;5.20;;;1.45;;
16824;SDS011;8529;48.108;-1.706;2023-04-15T04:13:30;7.93;;;1.38;;
16824;SDS011;8529;48.108;-1.706;2023-04-15T04:15:57;5.93;;;1.75;;
16824;SDS011;8529;48.108;-1.706;2023-04-15T04:18:25;5.57;;;1.83;;
16824;SDS011;8529;48.108;-1.706;2023-04-15T04:20:52;5.63;;;1.55;;
16824;SDS011;8529;48.108;-1.706;2023-04-15T04:23:20;9.93;;;1.87;;
16824;SDS011;8529;48.108;-1.706;2023-04-15T04:25:46;6.03;;;1.55;;
16824;SDS011;8529;48.108;-1.706;2023-04-15T04:28:13;4.57;;;1.65;;
16824;SDS011;8529;48.108;-1.706;2023-04-15T04:30:40;7.18;;;1.75;;
16824;SDS011;8529;48.108;-1.706;2023-04-15T04:33:07;7.18;;;1.80;;
16824;SDS011;8529;48.108;-1.706;2023-04-15T04:35:35;7.57;;;1.77;;
16824;SDS011;8529;48.108;-1.706;2023-04-15T04:38:02;10.30;;;1.98;;
16824;SDS011;8529;48.108;-1.706;2023-04-15T04:40:29;7.70;;;1.58;;
16824;SDS011;8529;48.108;-1.706;2023-04-15T04:42:56;4.07;;;1.57;;
16824;SDS011;8529;48.108;-1.706;2023-04-15T04:45:23;4.25;;;1.77;;
16824;SDS011;8529;48.108;-1.706;2023-04-15T04:47:50;4.18;;;2.05;;
16824;SDS011;8529;48.108;-1.706;2023-04-15T04:50:17;4.18;;;1.55;;
16824;SDS011;8529;48.108;-1.706;2023-04-15T04:52:45;6.07;;;1.60;;
16824;SDS011;8529;48.108;-1.706;2023-04-15T04:55:12;4.13;;;1.50;;
16824;SDS011;8529;48.108;-1.706;2023-04-15T04:57:39;11.77;;;2.10;;
16824;SDS011;8529;48.108;-1.706;2023-04-15T05:00:06;5.30;;;1.53;;
16824;SDS011;8529;48.108;-1.706;2023-04-15T05:02:34;4.78;;;1.63;;
16824;SDS011;8529;48.108;-1.706;2023-04-15T05:05:01;6.15;;;1.83;;
16824;SDS011;8529;48.108;-1.706;2023-04-15T05:07:28;4.72;;;1.35;;
16824;SDS011;8529;48.108;-1.706;2023-04-15T05:09:56;4.70;;;1.80;;
16824;SDS011;8529;48.108;-1.706;2023-04-15T05:12:23;6.72;;;3.47;;
16824;SDS011;8529;48.108;-1.706;2023-04-15T05:14:50;3.38;;;1.40;;
16824;SDS011;8529;48.108;-1.706;2023-04-15T05:17:17;4.75;;;1.95;;
16824;SDS011;8529;48.108;-1.706;2023-04-15T05:19:44;6.40;;;1.95;;
16824;SDS011;8529;48.108;-1.706;2023-04-15T05:22:10;3.28;;;1.23;;
16824;SDS011;8529;48.108;-1.706;2023-04-15T05:24:37;9.27;;;1.75;;
16824;SDS011;8529;48.108;-1.706;2023-04-15T05:27:06;7.93;;;1.90;;
16824;SDS011;8529;48.108;-1.706;2023-04-15T05:29:34;7.03;;;1.90;;
16824;SDS011;8529;48.108;-1.706;2023-04-15T05:32:01;3.58;;;1.42;;
16824;SDS011;8529;48.108;-1.706;2023-04-15T05:34:28;6.13;;;1.77;;
16824;SDS011;8529;48.108;-1.706;2023-04-15T05:36:55;7.28;;;2.15;;
16824;SDS011;8529;48.108;-1.706;2023-04-15T05:39:22;10.32;;;1.95;;
16824;SDS011;8529;48.108;-1.706;2023-04-15T05:41:48;9.73;;;1.60;;
16824;SDS011;8529;48.108;-1.706;2023-04-15T05:44:17;9.10;;;1.70;;
16824;SDS011;8529;48.108;-1.706;2023-04-15T05:46:44;6.97;;;1.83;;
16824;SDS011;8529;48.108;-1.706;2023-04-15T05:49:11;9.10;;;1.58;;
16824;SDS011;8529;48.108;-1.706;2023-04-15T05:51:38;4.68;;;1.77;;
16824;SDS011;8529;48.108;-1.706;2023-04-15T05:54:05;4.07;;;1.70;;
16824;SDS011;8529;48.108;-1.706;2023-04-15T05:56:32;10.07;;;2.28;;
16824;SDS011;8529;48.108;-1.706;2023-04-15T05:58:59;5.53;;;1.77;;
16824;SDS011;8529;48.108;-1.706;2023-04-15T06:01:27;9.50;;;2.10;;
16824;SDS011;8529;48.108;-1.706;2023-04-15T06:03:54;5.60;;;1.50;;
16824;SDS011;8529;48.108;-1.706;2023-04-15T06:06:21;4.13;;;1.85;;
16824;SDS011;8529;48.108;-1.706;2023-04-15T06:08:48;7.40;;;1.73;;
16824;SDS011;8529;48.108;-1.706;2023-04-15T06:11:15;5.50;;;1.60;;
16824;SDS011;8529;48.108;-1.706;2023-04-15T06:13:42;6.55;;;2.05;;
16824;SDS011;8529;48.108;-1.706;2023-04-15T06:16:09;5.72;;;1.90;;
16824;SDS011;8529;48.108;-1.706;2023-04-15T06:18:37;6.90;;;1.90;;
16824;SDS011;8529;48.108;-1.706;2023-04-15T06:21:04;13.27;;;2.00;;
16824;SDS011;8529;48.108;-1.706;2023-04-15T06:23:33;7.45;;;1.73;;
16824;SDS011;8529;48.108;-1.706;2023-04-15T06:26:00;8.68;;;2.10;;
16824;SDS011;8529;48.108;-1.706;2023-04-15T06:28:27;10.68;;;1.90;;
16824;SDS011;8529;48.108;-1.706;2023-04-15T06:30:54;7.28;;;2.00;;
16824;SDS011;8529;48.108;-1.706;2023-04-15T06:33:21;6.93;;;3.22;;
16824;SDS011;8529;48.108;-1.706;2023-04-15T06:35:50;10.18;;;2.88;;
16824;SDS011;8529;48.108;-1.706;2023-04-15T06:38:16;8.73;;;2.15;;
16824;SDS011;8529;48.108;-1.706;2023-04-15T06:40:43;6.80;;;2.10;;
16824;SDS011;8529;48.108;-1.706;2023-04-15T06:43:11;5.93;;;1.83;;
16824;SDS011;8529;48.108;-1.706;2023-04-15T06:45:37;9.95;;;2.13;;
16824;SDS011;8529;48.108;-1.706;2023-04-15T06:48:04;8.20;;;1.80;;
16824;SDS011;8529;48.108;-1.706;2023-04-15T06:50:31;8.75;;;1.80;;
16824;SDS011;8529;48.108;-1.706;2023-04-15T06:53:01;7.60;;;2.20;;
16824;SDS011;8529;48.108;-1.706;2023-04-15T06:55:28;8.82;;;1.75;;
16824;SDS011;8529;48.108;-1.706;2023-04-15T06:57:55;6.78;;;2.20;;
16824;SDS011;8529;48.108;-1.706;2023-04-15T07:00:22;8.05;;;1.83;;
16824;SDS011;8529;48.108;-1.706;2023-04-15T07:02:49;7.88;;;1.88;;
16824;SDS011;8529;48.108;-1.706;2023-04-15T07:05:16;10.85;;;2.15;;
16824;SDS011;8529;48.108;-1.706;2023-04-15T07:07:44;5.45;;;1.98;;
16824;SDS011;8529;48.108;-1.706;2023-04-15T07:10:12;7.43;;;2.05;;
16824;SDS011;8529;48.108;-1.706;2023-04-15T07:12:40;5.50;;;1.80;;
16824;SDS011;8529;48.108;-1.706;2023-04-15T07:15:07;9.45;;;1.98;;
16824;SDS011;8529;48.108;-1.706;2023-04-15T07:17:34;8.80;;;2.00;;
16824;SDS011;8529;48.108;-1.706;2023-04-15T07:20:01;6.25;;;1.92;;
16824;SDS011;8529;48.108;-1.706;2023-04-15T07:22:29;7.22;;;1.85;;
16824;SDS011;8529;48.108;-1.706;2023-04-15T07:24:55;11.02;;;2.45;;
16824;SDS011;8529;48.108;-1.706;2023-04-15T07:27:24;5.68;;;1.70;;
16824;SDS011;8529;48.108;-1.706;2023-04-15T07:29:51;7.10;;;1.95;;
16824;SDS011;8529;48.108;-1.706;2023-04-15T07:32:18;10.02;;;2.08;;
16824;SDS011;8529;48.108;-1.706;2023-04-15T07:34:45;12.63;;;2.53;;
16824;SDS011;8529;48.108;-1.706;2023-04-15T07:37:12;9.38;;;1.98;;
16824;SDS011;8529;48.108;-1.706;2023-04-15T07:39:38;8.20;;;1.95;;
16824;SDS011;8529;48.108;-1.706;2023-04-15T07:42:05;9.88;;;2.75;;
16824;SDS011;8529;48.108;-1.706;2023-04-15T07:44:34;8.68;;;2.00;;
16824;SDS011;8529;48.108;-1.706;2023-04-15T07:47:01;9.13;;;1.77;;
16824;SDS011;8529;48.108;-1.706;2023-04-15T07:49:28;6.10;;;2.30;;
16824;SDS011;8529;48.108;-1.706;2023-04-15T07:51:55;6.78;;;1.98;;
16824;SDS011;8529;48.108;-1.706;2023-04-15T07:54:24;4.80;;;1.58;;
16824;SDS011;8529;48.108;-1.706;2023-04-15T07:56:51;7.70;;;2.10;;
16824;SDS011;8529;48.108;-1.706;2023-04-15T07:59:18;6.22;;;1.80;;
16824;SDS011;8529;48.108;-1.706;2023-04-15T08:01:46;8.10;;;2.25;;
16824;SDS011;8529;48.108;-1.706;2023-04-15T08:04:14;8.50;;;1.70;;
16824;SDS011;8529;48.108;-1.706;2023-04-15T08:06:41;10.95;;;2.67;;
16824;SDS011;8529;48.108;-1.706;2023-04-15T08:09:08;9.45;;;2.13;;
16824;SDS011;8529;48.108;-1.706;2023-04-15T08:11:35;4.95;;;1.58;;
16824;SDS011;8529;48.108;-1.706;2023-04-15T08:14:02;8.35;;;1.83;;
16824;SDS011;8529;48.108;-1.706;2023-04-15T08:16:29;10.32;;;3.45;;
16824;SDS011;8529;48.108;-1.706;2023-04-15T08:18:57;6.20;;;1.85;;
16824;SDS011;8529;48.108;-1.706;2023-04-15T08:21:24;6.72;;;1.90;;
16824;SDS011;8529;48.108;-1.706;2023-04-15T08:23:52;6.90;;;3.03;;
16824;SDS011;8529;48.108;-1.706;2023-04-15T08:26:19;9.35;;;3.47;;
16824;SDS011;8529;48.108;-1.706;2023-04-15T08:28:46;10.02;;;2.20;;
16824;SDS011;8529;48.108;-1.706;2023-04-15T08:31:14;6.45;;;2.30;;
16824;SDS011;8529;48.108;-1.706;2023-04-15T08:33:42;8.10;;;1.80;;
16824;SDS011;8529;48.108;-1.706;2023-04-15T08:36:11;6.85;;;1.63;;
16824;SDS011;8529;48.108;-1.706;2023-04-15T08:38:38;12.27;;;2.05;;
16824;SDS011;8529;48.108;-1.706;2023-04-15T08:41:08;7.85;;;2.53;;
16824;SDS011;8529;48.108;-1.706;2023-04-15T08:43:39;5.72;;;1.83;;
16824;SDS011;8529;48.108;-1.706;2023-04-15T08:46:12;5.45;;;1.80;;
16824;SDS011;8529;48.108;-1.706;2023-04-15T08:48:40;8.27;;;1.83;;
16824;SDS011;8529;48.108;-1.706;2023-04-15T08:51:08;8.40;;;2.03;;
16824;SDS011;8529;48.108;-1.706;2023-04-15T08:53:36;5.45;;;1.73;;
16824;SDS011;8529;48.108;-1.706;2023-04-15T08:56:04;5.97;;;1.40;;
16824;SDS011;8529;48.108;-1.706;2023-04-15T08:58:34;5.85;;;1.52;;
16824;SDS011;8529;48.108;-1.706;2023-04-15T09:01:01;5.53;;;1.30;;
16824;SDS011;8529;48.108;-1.706;2023-04-15T09:03:28;7.05;;;2.58;;
16824;SDS011;8529;48.108;-1.706;2023-04-15T09:05:55;7.68;;;1.85;;
16824;SDS011;8529;48.108;-1.706;2023-04-15T09:08:23;4.53;;;1.60;;
16824;SDS011;8529;48.108;-1.706;2023-04-15T09:10:51;5.05;;;1.50;;
16824;SDS011;8529;48.108;-1.706;2023-04-15T09:13:19;2.08;;;1.10;;
16824;SDS011;8529;48.108;-1.706;2023-04-15T09:15:46;9.15;;;1.55;;
16824;SDS011;8529;48.108;-1.706;2023-04-15T09:18:13;2.47;;;0.82;;
16824;SDS011;8529;48.108;-1.706;2023-04-15T09:20:53;4.05;;;1.40;;
16824;SDS011;8529;48.108;-1.706;2023-04-15T09:23:21;2.72;;;0.93;;
16824;SDS011;8529;48.108;-1.706;2023-04-15T09:25:48;3.60;;;1.15;;
16824;SDS011;8529;48.108;-1.706;2023-04-15T09:28:22;3.35;;;1.10;;
16824;SDS011;8529;48.108;-1.706;2023-04-15T09:30:50;4.93;;;1.20;;
16824;SDS011;8529;48.108;-1.706;2023-04-15T09:33:20;2.63;;;0.88;;
16824;SDS011;8529;48.108;-1.706;2023-04-15T09:35:55;5.50;;;1.10;;
16824;SDS011;8529;48.108;-1.706;2023-04-15T09:38:23;5.30;;;0.90;;
16824;SDS011;8529;48.108;-1.706;2023-04-15T09:40:50;2.78;;;1.10;;
16824;SDS011;8529;48.108;-1.706;2023-04-15T09:43:18;3.65;;;1.50;;
16824;SDS011;8529;48.108;-1.706;2023-04-15T09:45:49;4.38;;;1.00;;
16824;SDS011;8529;48.108;-1.706;2023-04-15T09:48:17;1.30;;;0.85;;
16824;SDS011;8529;48.108;-1.706;2023-04-15T09:50:46;2.85;;;1.25;;
16824;SDS011;8529;48.108;-1.706;2023-04-15T09:53:17;6.43;;;1.30;;
16824;SDS011;8529;48.108;-1.706;2023-04-15T09:55:45;6.47;;;1.00;;
16824;SDS011;8529;48.108;-1.706;2023-04-15T09:58:20;2.83;;;0.82;;
16824;SDS011;8529;48.108;-1.706;2023-04-15T10:00:48;2.00;;;0.93;;
16824;SDS011;8529;48.108;-1.706;2023-04-15T10:03:17;1.70;;;0.88;;
16824;SDS011;8529;48.108;-1.706;2023-04-15T10:05:46;2.83;;;0.73;;
16824;SDS011;8529;48.108;-1.706;2023-04-15T10:08:15;1.95;;;0.77;;
16824;SDS011;8529;48.108;-1.706;2023-04-15T10:10:44;3.47;;;1.48;;
16824;SDS011;8529;48.108;-1.706;2023-04-15T10:13:12;4.18;;;1.13;;
16824;SDS011;8529;48.108;-1.706;2023-04-15T10:15:42;2.60;;;0.90;;
16824;SDS011;8529;48.108;-1.706;2023-04-15T10:18:11;4.05;;;1.13;;
16824;SDS011;8529;48.108;-1.706;2023-04-15T10:20:42;1.88;;;0.95;;
16824;SDS011;8529;48.108;-1.706;2023-04-15T10:23:09;5.32;;;1.00;;
16824;SDS011;8529;48.108;-1.706;2023-04-15T10:25:37;5.15;;;1.15;;
16824;SDS011;8529;48.108;-1.706;2023-04-15T10:28:05;2.97;;;1.02;;
16824;SDS011;8529;48.108;-1.706;2023-04-15T10:30:33;2.95;;;0.90;;
16824;SDS011;8529;48.108;-1.706;2023-04-15T10:33:03;5.30;;;1.00;;
16824;SDS011;8529;48.108;-1.706;2023-04-15T10:35:31;3.00;;;0.80;;
16824;SDS011;8529;48.108;-1.706;2023-04-15T10:37:58;1.95;;;1.00;;
16824;SDS011;8529;48.108;-1.706;2023-04-15T10:40:26;5.60;;;1.00;;
16824;SDS011;8529;48.108;-1.706;2023-04-15T10:42:56;2.33;;;0.93;;
16824;SDS011;8529;48.108;-1.706;2023-04-15T10:45:26;3.95;;;0.73;;
16824;SDS011;8529;48.108;-1.706;2023-04-15T10:47:57;0.77;;;0.57;;
16824;SDS011;8529;48.108;-1.706;2023-04-15T10:50:29;2.72;;;1.63;;
16824;SDS011;8529;48.108;-1.706;2023-04-15T10:52:57;1.50;;;0.50;;
16824;SDS011;8529;48.108;-1.706;2023-04-15T10:55:25;2.88;;;0.75;;
16824;SDS011;8529;48.108;-1.706;2023-04-15T10:57:52;1.35;;;0.60;;
16824;SDS011;8529;48.108;-1.706;2023-04-15T11:00:23;1.75;;;0.75;;
16824;SDS011;8529;48.108;-1.706;2023-04-15T11:02:52;3.60;;;0.80;;
16824;SDS011;8529;48.108;-1.706;2023-04-15T11:05:21;1.45;;;0.60;;
16824;SDS011;8529;48.108;-1.706;2023-04-15T11:08:09;1.52;;;0.77;;
16824;SDS011;8529;48.108;-1.706;2023-04-15T11:13:25;3.35;;;0.70;;
16824;SDS011;8529;48.108;-1.706;2023-04-15T11:16:00;1.80;;;0.50;;
16824;SDS011;8529;48.108;-1.706;2023-04-15T11:18:29;1.40;;;0.60;;
16824;SDS011;8529;48.108;-1.706;2023-04-15T11:20:57;2.55;;;0.73;;
16824;SDS011;8529;48.108;-1.706;2023-04-15T11:23:30;1.73;;;0.60;;
16824;SDS011;8529;48.108;-1.706;2023-04-15T11:25:59;2.03;;;0.57;;
16824;SDS011;8529;48.108;-1.706;2023-04-15T11:28:29;3.05;;;0.80;;
16824;SDS011;8529;48.108;-1.706;2023-04-15T11:30:58;1.60;;;0.60;;
16824;SDS011;8529;48.108;-1.706;2023-04-15T11:33:31;2.55;;;0.70;;
16824;SDS011;8529;48.108;-1.706;2023-04-15T11:35:58;4.20;;;0.70;;
16824;SDS011;8529;48.108;-1.706;2023-04-15T11:38:25;1.70;;;0.60;;
16824;SDS011;8529;48.108;-1.706;2023-04-15T11:40:53;4.57;;;1.13;;
16824;SDS011;8529;48.108;-1.706;2023-04-15T11:43:20;4.93;;;1.20;;
16824;SDS011;8529;48.108;-1.706;2023-04-15T11:45:50;3.25;;;0.80;;
16824;SDS011;8529;48.108;-1.706;2023-04-15T11:48:18;1.65;;;0.70;;
16824;SDS011;8529;48.108;-1.706;2023-04-15T11:50:51;2.05;;;0.70;;
16824;SDS011;8529;48.108;-1.706;2023-04-15T11:53:19;2.03;;;1.00;;
16824;SDS011;8529;48.108;-1.706;2023-04-15T11:55:47;1.90;;;0.50;;
16824;SDS011;8529;48.108;-1.706;2023-04-15T11:58:17;4.63;;;0.95;;
16824;SDS011;8529;48.108;-1.706;2023-04-15T12:00:45;2.35;;;0.75;;
16824;SDS011;8529;48.108;-1.706;2023-04-15T12:03:16;2.47;;;0.95;;
16824;SDS011;8529;48.108;-1.706;2023-04-15T12:06:05;4.10;;;0.85;;
16824;SDS011;8529;48.108;-1.706;2023-04-15T12:08:49;3.22;;;1.10;;
16824;SDS011;8529;48.108;-1.706;2023-04-15T12:11:27;2.83;;;0.90;;
16824;SDS011;8529;48.108;-1.706;2023-04-15T12:14:01;1.55;;;0.77;;
16824;SDS011;8529;48.108;-1.706;2023-04-15T12:16:30;3.88;;;0.80;;
16824;SDS011;8529;48.108;-1.706;2023-04-15T12:18:59;3.35;;;0.77;;
16824;SDS011;8529;48.108;-1.706;2023-04-15T12:21:32;2.47;;;1.10;;
16824;SDS011;8529;48.108;-1.706;2023-04-15T12:24:00;2.05;;;0.60;;
16824;SDS011;8529;48.108;-1.706;2023-04-15T12:26:30;3.17;;;2.13;;
16824;SDS011;8529;48.108;-1.706;2023-04-15T12:28:59;4.32;;;1.05;;
16824;SDS011;8529;48.108;-1.706;2023-04-15T12:31:28;3.25;;;0.98;;
16824;SDS011;8529;48.108;-1.706;2023-04-15T12:33:56;3.20;;;0.70;;
16824;SDS011;8529;48.108;-1.706;2023-04-15T12:36:24;1.85;;;0.57;;
16824;SDS011;8529;48.108;-1.706;2023-04-15T12:38:52;2.50;;;0.90;;
16824;SDS011;8529;48.108;-1.706;2023-04-15T12:41:20;2.10;;;0.63;;
16824;SDS011;8529;48.108;-1.706;2023-04-15T12:43:48;2.33;;;0.90;;
16824;SDS011;8529;48.108;-1.706;2023-04-15T12:46:16;3.13;;;0.80;;
16824;SDS011;8529;48.108;-1.706;2023-04-15T12:48:44;3.45;;;0.70;;
16824;SDS011;8529;48.108;-1.706;2023-04-15T12:51:11;3.42;;;0.82;;
16824;SDS011;8529;48.108;-1.706;2023-04-15T12:53:38;2.58;;;0.70;;
16824;SDS011;8529;48.108;-1.706;2023-04-15T12:56:05;2.95;;;0.70;;
16824;SDS011;8529;48.108;-1.706;2023-04-15T12:58:32;2.40;;;0.80;;
16824;SDS011;8529;48.108;-1.706;2023-04-15T13:01:00;0.50;;;0.40;;
16824;SDS011;8529;48.108;-1.706;2023-04-15T13:03:28;1.55;;;0.80;;
16824;SDS011;8529;48.108;-1.706;2023-04-15T13:05:55;3.25;;;0.90;;
16824;SDS011;8529;48.108;-1.706;2023-04-15T13:08:23;2.55;;;0.70;;
16824;SDS011;8529;48.108;-1.706;2023-04-15T13:10:50;5.63;;;0.88;;
16824;SDS011;8529;48.108;-1.706;2023-04-15T13:13:16;2.92;;;0.60;;
16824;SDS011;8529;48.108;-1.706;2023-04-15T13:15:43;1.50;;;0.63;;
16824;SDS011;8529;48.108;-1.706;2023-04-15T13:18:10;3.60;;;0.85;;
16824;SDS011;8529;48.108;-1.706;2023-04-15T13:20:39;3.35;;;0.70;;
16824;SDS011;8529;48.108;-1.706;2023-04-15T13:23:06;1.48;;;0.70;;
16824;SDS011;8529;48.108;-1.706;2023-04-15T13:25:32;1.38;;;0.60;;
16824;SDS011;8529;48.108;-1.706;2023-04-15T13:27:59;2.97;;;1.90;;
16824;SDS011;8529;48.108;-1.706;2023-04-15T13:30:27;8.20;;;1.05;;
16824;SDS011;8529;48.108;-1.706;2023-04-15T13:32:54;2.28;;;0.85;;
16824;SDS011;8529;48.108;-1.706;2023-04-15T13:35:20;1.05;;;0.60;;
16824;SDS011;8529;48.108;-1.706;2023-04-15T13:37:49;3.97;;;1.50;;
16824;SDS011;8529;48.108;-1.706;2023-04-15T13:40:16;2.63;;;0.70;;
16824;SDS011;8529;48.108;-1.706;2023-04-15T13:42:42;1.38;;;0.60;;
16824;SDS011;8529;48.108;-1.706;2023-04-15T13:45:10;4.80;;;1.10;;
16824;SDS011;8529;48.108;-1.706;2023-04-15T13:47:37;2.45;;;1.30;;
16824;SDS011;8529;48.108;-1.706;2023-04-15T13:50:04;2.85;;;1.05;;
16824;SDS011;8529;48.108;-1.706;2023-04-15T13:52:31;3.35;;;0.68;;
16824;SDS011;8529;48.108;-1.706;2023-04-15T13:55:00;1.58;;;0.65;;
16824;SDS011;8529;48.108;-1.706;2023-04-15T13:57:27;1.00;;;0.70;;
16824;SDS011;8529;48.108;-1.706;2023-04-15T13:59:54;1.50;;;0.70;;
16824;SDS011;8529;48.108;-1.706;2023-04-15T14:02:20;3.13;;;0.65;;
16824;SDS011;8529;48.108;-1.706;2023-04-15T14:04:48;2.35;;;0.80;;
16824;SDS011;8529;48.108;-1.706;2023-04-15T14:07:15;1.67;;;0.80;;
16824;SDS011;8529;48.108;-1.706;2023-04-15T14:09:42;3.28;;;0.68;;
16824;SDS011;8529;48.108;-1.706;2023-04-15T14:12:10;1.20;;;0.77;;
16824;SDS011;8529;48.108;-1.706;2023-04-15T14:14:37;3.33;;;0.60;;
16824;SDS011;8529;48.108;-1.706;2023-04-15T14:17:04;1.23;;;0.60;;
16824;SDS011;8529;48.108;-1.706;2023-04-15T14:19:31;1.65;;;0.68;;
16824;SDS011;8529;48.108;-1.706;2023-04-15T14:21:59;5.63;;;1.10;;
16824;SDS011;8529;48.108;-1.706;2023-04-15T14:24:25;2.55;;;0.70;;
16824;SDS011;8529;48.108;-1.706;2023-04-15T14:26:52;1.05;;;0.68;;
16824;SDS011;8529;48.108;-1.706;2023-04-15T14:29:22;1.33;;;1.05;;
16824;SDS011;8529;48.108;-1.706;2023-04-15T14:31:49;1.48;;;0.80;;
16824;SDS011;8529;48.108;-1.706;2023-04-15T14:34:16;3.45;;;1.15;;
16824;SDS011;8529;48.108;-1.706;2023-04-15T14:36:43;1.30;;;0.60;;
16824;SDS011;8529;48.108;-1.706;2023-04-15T14:39:10;2.88;;;0.60;;
16824;SDS011;8529;48.108;-1.706;2023-04-15T14:41:37;2.45;;;0.70;;
16824;SDS011;8529;48.108;-1.706;2023-04-15T14:44:04;2.40;;;0.60;;
16824;SDS011;8529;48.108;-1.706;2023-04-15T14:46:34;2.25;;;0.80;;
16824;SDS011;8529;48.108;-1.706;2023-04-15T14:49:01;5.68;;;0.60;;
16824;SDS011;8529;48.108;-1.706;2023-04-15T14:51:28;1.45;;;0.70;;
16824;SDS011;8529;48.108;-1.706;2023-04-15T14:53:55;2.30;;;0.85;;
16824;SDS011;8529;48.108;-1.706;2023-04-15T14:56:22;6.53;;;0.73;;